This is the latest recevied weather packets stored in our database for station/object AA7VG. If no packets are shown the sender has not sent any weather packets the latest 10 day(s).
| Time | Temp. | Humidity | Pressure | Rain* | Wind** | Luminosity | Snow |
|---|---|---|---|---|---|---|---|
| 1777903692 | 10.56° C | 47% | 1013.1 hPa | 0 mm | - | - | - |
| 1777903388 | 10° C | 46% | 1013.1 hPa | 0 mm | - | - | - |
| 1777903084 | 10° C | 44% | 1013.4 hPa | 0 mm | - | - | - |
| 1777902781 | 10° C | 45% | 1013.4 hPa | 0 mm | - | - | - |
| 1777902479 | 10° C | 45% | 1013.1 hPa | 0 mm | - | - | - |
| 1777902175 | 9.44° C | 46% | 1013 hPa | 0 mm | - | - | - |
| 1777901873 | 8.89° C | 46% | 1013.3 hPa | 0 mm | - | - | - |
| 1777901570 | 8.33° C | 47% | 1013 hPa | 0 mm | - | - | - |
| 1777901268 | 8.33° C | 48% | 1013.1 hPa | 0 mm | - | - | - |
| 1777900965 | 8.33° C | 48% | 1013.1 hPa | 0 mm | - | - | - |
| 1777900662 | 8.33° C | 49% | 1013.3 hPa | 0 mm | - | - | - |
| 1777900359 | 8.33° C | 48% | 1013 hPa | 0 mm | - | - | - |
| 1777900057 | 8.33° C | 47% | 1013.1 hPa | 0 mm | - | - | - |
| 1777899752 | 8.33° C | 47% | 1012.8 hPa | 0 mm | - | - | - |
| 1777899449 | 8.33° C | 47% | 1012.7 hPa | 0 mm | - | - | - |
| 1777899147 | 7.78° C | 48% | 1012.2 hPa | 0 mm | - | - | - |
| 1777898845 | 7.78° C | 48% | 1012.3 hPa | 0 mm | - | - | - |
| 1777898542 | 7.78° C | 47% | 1012.2 hPa | 0 mm | - | - | - |
| 1777898240 | 7.78° C | 48% | 1012.2 hPa | 0 mm | - | - | - |
| 1777897937 | 7.78° C | 48% | 1012 hPa | 0 mm | - | - | - |
| 1777897632 | 7.78° C | 48% | 1012.1 hPa | 0 mm | - | - | - |
| 1777897328 | 8.33° C | 48% | 1012.5 hPa | 0 mm | - | - | - |
| 1777897024 | 8.33° C | 47% | 1012.3 hPa | 0 mm | - | - | - |
| 1777896722 | 8.89° C | 47% | 1012.7 hPa | 0 mm | - | - | - |
| 1777896419 | 8.33° C | 48% | 1012.2 hPa | 0 mm | - | - | - |
* Rain latest hour (hover to see other rain measurements)
** Current wind speed in m/s (hover to see current wind gust speed)